TAF Text Data
IDs:
Format:
Raw Decoded Include METAR

Data at: 1127 UTC 25 Oct 2020

KVLD 251120Z 2512/2612 00000KT 2SM BR BKN002
  TEMPO 2512/2515 1/2SM FG OVC001
  FM251500 35002KT P6SM BKN010
  FM251800 35002KT P6SM BKN050
  FM260800 00000KT 3SM BR BKN002